• Join FlightAware (Why Join?)
  • Login
  • US Flag 
04:09AM EDT


 

Airport Tracker/Info


-or-


 

Live Flight TrackerFlight Track Log ✈ N9191V ✈ 30-Jun-2013 ✈ KBID - KALB

Flight Track Log - Related Links

Times and Time Zones

All times are in EDT time to prevent confusion due to time zone crossing. See the N9191V flight status page for this flight to view local times or setup timezone preferences in your user account.

Time Position Orientation Groundspeed Altitude Reporting Facility
EDT Latitude Longitude Course Direction KTS MPH feet Rate Location/Type
07:40AM 41.1636 -71.6131 294° West 78 90 800  Level Boston Center
07:41AM 41.1661 -71.6542 275° West 101 116 1,300 420 Climbing Boston Center
07:42AM 41.1725 -71.6928 282° West 120 138 1,700 360 Climbing Boston Center
07:43AM 41.1872 -71.7231 303° West 101 116 2,100 420 Climbing Boston Center
07:44AM 41.2450 -71.8132 288° West  Level FlightAware Approximate
07:44AM 41.2042 -71.7669 297° West 131 151 2,600  Level Boston Center
07:45AM 41.2572 -71.8549 294° West  Level FlightAware Approximate
07:45AM 41.2253 -71.7914 319° Northwest 106 122 3,100  Level Boston Center
07:46AM 41.2503 -71.8217 318° Northwest 122 140 3,500 360 Climbing Boston Center
07:47AM 41.2756 -71.8517 318° Northwest 122 140 3,900 360 Climbing Boston Center
07:48AM 41.3008 -71.8819 318° Northwest 116 133 4,300 300 Climbing Boston Center
07:49AM 41.3300 -71.9122 322° Northwest 123 142 4,600 240 Climbing Boston Center
07:50AM 41.3572 -71.9394 323° Northwest 123 142 4,900 240 Climbing Boston Center
07:51AM 41.3825 -71.9669 321° Northwest 120 138 5,200 240 Climbing Boston Center
07:52AM 41.4097 -71.9972 320° Northwest 122 140 5,500 240 Climbing Boston Center
07:53AM 41.4367 -72.0247 323° Northwest 126 145 5,700 180 Climbing Boston Center
07:54AM 41.4661 -72.0550 322° Northwest 119 137 6,000 120 Climbing Boston Center
07:55AM 41.4975 -72.0908 319° Northwest 147 169 6,000  Level Boston Center
07:56AM 41.5289 -72.1239 322° Northwest 146 168 6,000  Level Boston Center
07:57AM 41.5622 -72.1572 323° Northwest 148 170 6,000  Level Boston Center
07:58AM 41.5936 -72.1931 320° Northwest 144 166 6,000  Level Boston Center
07:59AM 41.6228 -72.2319 315° West 146 168 6,000  Level Boston Center
08:00AM 41.6519 -72.2706 315° West 147 169 6,000  Level Boston Center
08:01AM 41.6792 -72.3094 313° West 148 170 6,000  Level Boston Center
08:02AM 41.7083 -72.3511 313° West 146 168 6,000  Level Boston Center
08:03AM 41.7397 -72.3956 313° West 147 169 6,000  Level Boston Center
08:04AM 41.7711 -72.4372 315° West 147 169 6,000  Level Boston Center
08:05AM 41.8022 -72.4764 317° Northwest 146 168 6,000  Level Boston Center
08:06AM 41.8272 -72.5181 309° West 148 170 6,000  Level Boston Center
08:07AM 41.8586 -72.5572 317° Northwest 151 174 6,000  Level Boston Center
08:08AM 41.8875 -72.5989 313° West 154 177 6,000  Level Boston Center
08:09AM 41.9189 -72.6411 315° West 152 175 6,000  Level Boston Center
08:10AM 41.9458 -72.6803 313° West 145 167 6,000  Level Boston Center
08:11AM 41.9792 -72.7167 321° Northwest 147 169 6,000  Level Boston Center
08:12AM 42.0081 -72.7558 315° West 150 173 6,000  Level Boston Center
08:13AM 42.0350 -72.7922 315° West 148 170 6,000  Level Boston Center
08:14AM 42.0642 -72.8289 317° Northwest 148 170 6,000  Level Boston Center
08:15AM 42.0933 -72.8681 315° West 150 173 6,000  Level Boston Center
08:16AM 42.1222 -72.9019 319° Northwest 150 173 6,000  Level Boston Center
08:17AM 42.1514 -72.9414 315° West 147 169 6,000  Level Boston Center
08:18AM 42.1822 -72.9836 315° West 148 170 6,000  Level Boston Center
08:19AM 42.2050 -73.0175 312° West 150 173 6,000  Level Boston Center
08:20AM 42.2319 -73.0514 317° Northwest 149 171 6,000  Level Boston Center
08:21AM 42.2650 -73.0936 317° Northwest 147 169 6,000  Level Boston Center
08:22AM 42.2942 -73.1278 319° Northwest 147 169 6,000  Level Boston Center
08:23AM 42.3272 -73.1731 315° West 145 167 6,000  Level Boston Center
08:24AM 42.3561 -73.2069 319° Northwest 147 169 6,000  Level Boston Center
08:25AM 42.3892 -73.2497 316° Northwest 148 170 6,000  Level Boston Center
08:26AM 42.4181 -73.2839 319° Northwest 150 173 6,000  Level Boston Center
08:27AM 42.4492 -73.3236 317° Northwest 149 171 6,000  Level Boston Center
08:28AM 42.4781 -73.3606 317° Northwest 147 169 6,000 -120 Level Boston Center
08:29AM 42.5028 -73.4003 310° West 148 170 5,800 -360 Descending Boston Center
08:30AM 42.5356 -73.4489 312° West 158 182 5,300 -540 Descending Boston Center
08:31AM 42.5664 -73.4944 313° West 165 190 4,800 -540 Descending Boston Center
08:32AM 42.5972 -73.5428 311° West 166 191 4,300 -420 Descending Boston Center
08:33AM 42.6258 -73.5858 312° West 162 186 4,000 -180 Descending Boston Center
08:34AM 42.6506 -73.6256 310° West 143 165 4,000  Level Boston Center
08:35AM 42.6856 -73.6575 326° Northwest 144 166 4,000 -180 Level Boston Center
08:36AM 42.7208 -73.6864 329° Northwest 151 174 3,700 -420 Descending Boston Center
08:37AM 42.7622 -73.7097 338° Northwest 157 181 3,200 -600 Descending Boston Center
08:38AM 42.8017 -73.7275 342° North 154 177 2,600 -480 Descending Boston Center
08:39AM 42.8261 -73.7678 310° West 134 154 2,300 -600 Descending Boston Center
08:40AM 42.8050 -73.8042 232° Southwest 125 144 1,400 -840 Descending Boston Center
08:41AM 42.7736 -73.8092 187° South 126 145 800 -660 Descending Boston Center
08:43AM 42.7491 -73.8020 North  Level Estimated